sensor_id;sensor_type;location;lat;lon;timestamp;temperature;humidity
31687;DHT22;18285;51.330;4.946;2022-08-01T00:10:47;26.20;53.30
31687;DHT22;18285;51.330;4.946;2022-08-01T00:34:58;26.20;52.90
31687;DHT22;18285;51.330;4.946;2022-08-01T00:59:08;26.20;53.40
31687;DHT22;18285;51.330;4.946;2022-08-01T01:47:40;26.20;53.30
31687;DHT22;18285;51.330;4.946;2022-08-01T02:11:52;26.20;53.40
31687;DHT22;18285;51.330;4.946;2022-08-01T02:36:05;26.20;53.30
31687;DHT22;18285;51.330;4.946;2022-08-01T03:00:16;26.20;53.40
31687;DHT22;18285;51.330;4.946;2022-08-01T03:24:28;26.30;53.50
31687;DHT22;18285;51.330;4.946;2022-08-01T03:48:44;26.20;53.50
31687;DHT22;18285;51.330;4.946;2022-08-01T04:12:57;26.20;53.30
31687;DHT22;18285;51.330;4.946;2022-08-01T04:37:09;26.20;53.40
31687;DHT22;18285;51.330;4.946;2022-08-01T05:01:21;26.20;53.40
31687;DHT22;18285;51.330;4.946;2022-08-01T05:25:32;26.20;53.30
31687;DHT22;18285;51.330;4.946;2022-08-01T05:49:44;26.10;53.60
31687;DHT22;18285;51.330;4.946;2022-08-01T06:13:55;26.10;54.30
31687;DHT22;18285;51.330;4.946;2022-08-01T06:38:05;26.00;54.70
31687;DHT22;18285;51.330;4.946;2022-08-01T07:02:16;25.90;54.80
31687;DHT22;18285;51.330;4.946;2022-08-01T07:26:27;25.80;54.70
31687;DHT22;18285;51.330;4.946;2022-08-01T07:50:38;25.80;54.30
31687;DHT22;18285;51.330;4.946;2022-08-01T08:14:49;25.50;55.30
31687;DHT22;18285;51.330;4.946;2022-08-01T08:39:00;25.80;54.00
31687;DHT22;18285;51.330;4.946;2022-08-01T09:03:12;25.80;53.10
31687;DHT22;18285;51.330;4.946;2022-08-01T09:27:23;25.60;53.70
31687;DHT22;18285;51.330;4.946;2022-08-01T09:51:37;25.60;52.90
31687;DHT22;18285;51.330;4.946;2022-08-01T10:15:47;25.70;52.70
31687;DHT22;18285;51.330;4.946;2022-08-01T10:39:59;25.70;52.10
31687;DHT22;18285;51.330;4.946;2022-08-01T11:04:11;25.80;50.90
31687;DHT22;18285;51.330;4.946;2022-08-01T11:28:24;25.70;51.30
31687;DHT22;18285;51.330;4.946;2022-08-01T11:52:34;25.70;51.10
31687;DHT22;18285;51.330;4.946;2022-08-01T12:16:51;25.60;50.70
31687;DHT22;18285;51.330;4.946;2022-08-01T12:41:03;25.60;50.80
31687;DHT22;18285;51.330;4.946;2022-08-01T13:05:14;25.50;50.40
31687;DHT22;18285;51.330;4.946;2022-08-01T13:29:39;25.60;49.90
31687;DHT22;18285;51.330;4.946;2022-08-01T13:53:54;25.60;49.60
31687;DHT22;18285;51.330;4.946;2022-08-01T14:18:06;25.50;49.40
31687;DHT22;18285;51.330;4.946;2022-08-01T14:42:17;25.50;49.40
31687;DHT22;18285;51.330;4.946;2022-08-01T15:06:28;25.50;48.90
31687;DHT22;18285;51.330;4.946;2022-08-01T15:30:42;25.60;50.10
31687;DHT22;18285;51.330;4.946;2022-08-01T15:54:53;25.60;49.90
31687;DHT22;18285;51.330;4.946;2022-08-01T16:19:03;25.60;49.10
31687;DHT22;18285;51.330;4.946;2022-08-01T16:43:15;25.60;49.30
31687;DHT22;18285;51.330;4.946;2022-08-01T17:07:25;25.50;49.00
31687;DHT22;18285;51.330;4.946;2022-08-01T17:31:37;25.50;49.20
31687;DHT22;18285;51.330;4.946;2022-08-01T17:55:49;25.50;49.20
31687;DHT22;18285;51.330;4.946;2022-08-01T18:19:59;25.50;49.20
31687;DHT22;18285;51.330;4.946;2022-08-01T18:44:10;25.50;49.10
31687;DHT22;18285;51.330;4.946;2022-08-01T19:08:21;25.40;48.90
31687;DHT22;18285;51.330;4.946;2022-08-01T19:32:33;25.50;48.80
31687;DHT22;18285;51.330;4.946;2022-08-01T19:56:47;25.30;48.60
31687;DHT22;18285;51.330;4.946;2022-08-01T20:20:58;25.40;48.60
31687;DHT22;18285;51.330;4.946;2022-08-01T20:45:10;25.40;48.30
31687;DHT22;18285;51.330;4.946;2022-08-01T21:09:23;25.30;48.20
31687;DHT22;18285;51.330;4.946;2022-08-01T21:33:36;25.20;47.90
31687;DHT22;18285;51.330;4.946;2022-08-01T22:22:23;25.30;46.90
31687;DHT22;18285;51.330;4.946;2022-08-01T22:46:51;25.20;46.90
31687;DHT22;18285;51.330;4.946;2022-08-01T23:11:05;25.20;46.80
31687;DHT22;18285;51.330;4.946;2022-08-01T23:35:16;25.20;46.60
31687;DHT22;18285;51.330;4.946;2022-08-01T23:59:26;25.10;46.60
